Time;durP1;ratioP1;P1;durP2;ratioP2;P2;SDS_P1;SDS_P2;PMS_P1;PMS_P2;Temp;Humidity;BMP_temperature;BMP_pressure;BME280_temperature;BME280_humidity;BME280_pressure;Samples;Min_cycle;Max_cycle;Signal;HPM_P1;HPM_P2
2023/06/12 00:01:40;;;;;;;8.77;3.07;;;;;;;14.17;100.00;101414.78;5056327;28;20108;-88
2023/06/12 00:04:06;;;;;;;7.80;3.13;;;;;;;14.20;100.00;101425.19;5039702;28;20033;-88
2023/06/12 00:06:32;;;;;;;;;;;;;;;14.21;100.00;101438.44;5053752;28;20502;-87
2023/06/12 00:08:58;;;;;;;7.97;3.03;;;;;;;14.18;100.00;101419.97;5045506;28;19923;-88
2023/06/12 00:11:24;;;;;;;8.98;2.65;;;;;;;14.17;100.00;101417.47;5047768;28;20017;-88
2023/06/12 00:13:49;;;;;;;12.80;3.20;;;;;;;14.07;100.00;101428.38;5042604;28;20407;-88
2023/06/12 00:16:18;;;;;;;8.37;3.17;;;;;;;14.10;100.00;101444.16;5035531;28;20013;-88
2023/06/12 00:18:43;;;;;;;7.38;3.00;;;;;;;14.10;100.00;101460.28;5036493;28;20029;-88
2023/06/12 00:21:11;;;;;;;8.90;3.22;;;;;;;14.10;100.00;101466.47;5026802;28;20112;-88
2023/06/12 00:23:37;;;;;;;7.53;3.05;;;;;;;14.06;100.00;101465.13;5049465;28;20033;-87
2023/06/12 00:26:03;;;;;;;7.30;3.28;;;;;;;14.15;100.00;101474.03;5045239;28;20021;-88
2023/06/12 00:28:29;;;;;;;6.60;2.85;;;;;;;14.12;100.00;101461.78;5033148;28;20045;-88
2023/06/12 00:30:57;;;;;;;6.07;2.67;;;;;;;14.19;100.00;101467.31;5017782;28;20032;-87
2023/06/12 00:33:23;;;;;;;9.95;3.47;;;;;;;14.17;100.00;101447.00;5033164;28;20112;-88
2023/06/12 00:35:48;;;;;;;10.48;3.40;;;;;;;14.09;100.00;101447.84;5031127;28;20025;-88
2023/06/12 00:38:15;;;;;;;6.93;2.70;;;;;;;14.21;100.00;101457.25;5052534;28;20086;-88
2023/06/12 00:40:41;;;;;;;7.00;2.47;;;;;;;14.28;100.00;101463.63;5035353;28;20016;-88
2023/06/12 00:43:08;;;;;;;7.35;3.30;;;;;;;14.25;100.00;101458.56;5052367;28;20028;-88
2023/06/12 00:45:35;;;;;;;5.05;3.00;;;;;;;14.27;100.00;101472.66;5034816;28;20204;-88
2023/06/12 00:48:01;;;;;;;13.00;3.45;;;;;;;14.22;100.00;101471.50;5032024;28;20033;-88
2023/06/12 00:50:27;;;;;;;9.45;2.75;;;;;;;14.14;100.00;101477.69;5031127;28;20022;-89
2023/06/12 00:52:54;;;;;;;;;;;;;;;14.14;100.00;101483.94;5030978;28;20052;-89
2023/06/12 00:55:20;;;;;;;11.27;3.47;;;;;;;14.10;100.00;101485.28;5014311;28;19913;-89
2023/06/12 00:57:47;;;;;;;12.85;4.32;;;;;;;13.88;100.00;101483.22;5014562;28;20453;-88
2023/06/12 01:00:14;;;;;;;8.35;2.70;;;;;;;13.96;100.00;101517.31;5023361;28;20172;-88
2023/06/12 01:02:50;;;;;;;7.22;3.30;;;;;;;13.89;100.00;101509.09;5039443;28;20449;-88
2023/06/12 01:05:32;;;;;;;;;;;;;;;13.87;100.00;101511.91;5043977;28;20040;-89
2023/06/12 01:08:15;;;;;;;9.13;3.42;;;;;;;13.84;100.00;101519.47;5048241;28;19919;-88
2023/06/12 01:10:52;;;;;;;7.82;3.33;;;;;;;13.75;100.00;101501.69;5047285;28;20036;-88
2023/06/12 01:13:18;;;;;;;13.07;3.83;;;;;;;13.71;100.00;101525.31;5033681;28;20044;-89
2023/06/12 01:15:44;;;;;;;10.55;3.72;;;;;;;13.67;100.00;101523.94;5033329;28;20108;-89
2023/06/12 01:18:09;;;;;;;12.27;3.53;;;;;;;13.59;100.00;101515.91;5045141;28;20537;-88
2023/06/12 01:20:35;;;;;;;11.40;4.07;;;;;;;13.60;100.00;101539.03;5014055;28;20025;-88
2023/06/12 01:23:09;;;;;;;9.63;3.75;;;;;;;13.57;100.00;101528.63;5036193;28;20033;-88
2023/06/12 01:26:07;;;;;;;11.15;3.53;;;;;;;13.57;100.00;101531.31;5025483;28;20056;-89
2023/06/12 01:29:09;;;;;;;8.00;3.28;;;;;;;13.51;100.00;101517.56;5028758;28;20033;-89
2023/06/12 01:31:56;;;;;;;5.78;3.03;;;;;;;13.50;100.00;101521.22;5026068;28;20025;-88
2023/06/12 01:34:35;;;;;;;7.68;3.72;;;;;;;13.44;100.00;101518.38;5044182;28;20083;-88
2023/06/12 01:37:17;;;;;;;21.92;4.38;;;;;;;13.39;100.00;101513.50;5029538;28;20045;-88
2023/06/12 01:39:54;;;;;;;12.50;3.42;;;;;;;13.41;100.00;101518.69;5026487;28;20674;-89
2023/06/12 01:42:21;;;;;;;11.55;3.55;;;;;;;13.37;100.00;101515.50;5033153;28;20021;-88
2023/06/12 01:44:50;;;;;;;6.28;3.33;;;;;;;13.33;100.00;101522.19;5047053;28;20024;-89
2023/06/12 01:47:15;;;;;;;9.10;3.17;;;;;;;13.29;100.00;101515.44;5049114;28;20033;-88
2023/06/12 01:49:41;;;;;;;6.67;3.47;;;;;;;13.23;100.00;101510.72;5026192;28;20403;-88
2023/06/12 01:52:06;;;;;;;8.53;3.80;;;;;;;13.30;100.00;101527.88;5029359;28;20499;-88
2023/06/12 01:54:33;;;;;;;9.30;3.17;;;;;;;13.28;100.00;101519.16;5024707;28;20036;-89
2023/06/12 01:56:59;;;;;;;7.50;3.10;;;;;;;13.27;100.00;101521.00;5039148;28;20036;-88
2023/06/12 01:59:25;;;;;;;9.07;3.40;;;;;;;13.27;100.00;101522.78;5031259;28;20398;-89
2023/06/12 02:01:50;;;;;;;13.30;4.30;;;;;;;13.32;100.00;101520.47;5049670;28;20041;-88
2023/06/12 02:04:17;;;;;;;9.90;3.50;;;;;;;13.28;100.00;101521.81;5049500;28;20426;-88
2023/06/12 02:06:42;;;;;;;9.25;3.85;;;;;;;13.23;100.00;101516.91;5026350;28;20448;-88
2023/06/12 02:09:08;;;;;;;6.50;4.00;;;;;;;13.20;100.00;101514.53;5027655;28;20056;-88
2023/06/12 02:11:33;;;;;;;10.07;3.43;;;;;;;13.33;100.00;101526.72;5032960;28;20040;-88
2023/06/12 02:13:59;;;;;;;11.23;3.10;;;;;;;13.33;100.00;101527.53;5021702;28;20030;-88
2023/06/12 02:16:25;;;;;;;12.02;4.13;;;;;;;13.39;100.00;101543.00;5027305;28;20511;-89
2023/06/12 02:18:51;;;;;;;12.15;4.28;;;;;;;13.37;100.00;101536.94;5030888;28;20021;-88
2023/06/12 02:21:17;;;;;;;7.13;2.93;;;;;;;13.43;100.00;101538.13;5047868;28;20033;-88
2023/06/12 02:23:42;;;;;;;9.70;2.77;;;;;;;13.46;100.00;101540.47;5029358;28;20049;-89
2023/06/12 02:26:07;;;;;;;9.80;3.67;;;;;;;13.44;100.00;101537.97;5013307;28;20546;-88
2023/06/12 02:28:33;;;;;;;7.57;3.43;;;;;;;13.49;100.00;101532.13;5024758;28;20568;-89
2023/06/12 02:30:58;;;;;;;11.47;4.03;;;;;;;13.49;100.00;101530.28;5030909;28;20037;-88
2023/06/12 02:33:31;;;;;;;8.00;3.45;;;;;;;13.47;100.00;101524.25;5028610;28;20108;-88
2023/06/12 02:35:57;;;;;;;13.18;3.78;;;;;;;13.51;100.00;101527.44;5023697;28;20025;-88
2023/06/12 02:38:22;;;;;;;11.83;4.13;;;;;;;13.56;100.00;101535.84;5027050;28;20625;-89
2023/06/12 02:40:47;;;;;;;6.93;2.73;;;;;;;13.59;100.00;101542.72;5043251;28;20589;-88
2023/06/12 02:43:13;;;;;;;10.27;3.23;;;;;;;13.54;100.00;101532.47;5033649;28;20025;-88
2023/06/12 02:45:38;;;;;;;15.10;4.43;;;;;;;13.51;100.00;101536.34;5043516;28;20037;-88
2023/06/12 02:48:05;;;;;;;11.10;3.80;;;;;;;13.50;100.00;101545.38;5030353;28;20490;-88
2023/06/12 02:50:33;;;;;;;8.45;3.70;;;;;;;13.54;100.00;101555.78;5031921;28;20029;-87
2023/06/12 02:53:01;;;;;;;8.68;3.28;;;;;;;13.49;100.00;101548.22;5034331;28;20039;-88
2023/06/12 02:55:27;;;;;;;8.77;3.33;;;;;;;13.49;100.00;101559.78;5055683;23;20486;-78
2023/06/12 02:57:54;;;;;;;17.48;4.50;;;;;;;13.40;100.00;101560.75;5026867;28;20029;-78
2023/06/12 03:00:19;;;;;;;9.37;2.90;;;;;;;13.43;100.00;101575.69;5018653;28;20512;-78
2023/06/12 03:02:47;;;;;;;;;;;;;;;13.44;100.00;101583.59;5017300;28;20031;-78
2023/06/12 03:05:14;;;;;;;12.70;3.88;;;;;;;13.46;100.00;101586.94;5033821;28;20259;-78
2023/06/12 03:07:41;;;;;;;14.45;4.47;;;;;;;13.45;100.00;101582.56;5042769;22;20013;-74
2023/06/12 03:10:08;;;;;;;15.15;3.55;;;;;;;13.45;100.00;101584.41;5052077;28;20623;-74
2023/06/12 03:12:34;;;;;;;20.13;4.07;;;;;;;13.47;100.00;101595.84;5050806;28;20068;-74
2023/06/12 03:15:02;;;;;;;10.35;3.20;;;;;;;13.50;100.00;101600.88;5045158;28;20079;-74
2023/06/12 03:17:28;;;;;;;9.43;3.95;;;;;;;13.52;100.00;101593.50;5056317;28;20599;-74
2023/06/12 03:19:53;;;;;;;10.75;3.53;;;;;;;13.53;100.00;101597.84;5039021;28;20187;-74
2023/06/12 03:22:18;;;;;;;10.37;3.73;;;;;;;13.60;100.00;101588.19;5043666;28;20036;-74
2023/06/12 03:24:44;;;;;;;7.27;3.27;;;;;;;13.61;100.00;101580.97;5019164;28;20059;-74
2023/06/12 03:27:10;;;;;;;12.63;4.03;;;;;;;13.70;100.00;101582.69;5028562;28;20013;-75
2023/06/12 03:29:35;;;;;;;11.38;4.03;;;;;;;13.67;100.00;101569.56;5015591;28;20034;-74
2023/06/12 03:32:02;;;;;;;8.95;4.15;;;;;;;13.62;100.00;101563.84;5032506;28;20405;-74
2023/06/12 03:34:36;;;;;;;9.13;3.22;;;;;;;13.65;100.00;101569.75;5038738;28;20588;-74
2023/06/12 03:37:03;;;;;;;13.32;4.25;;;;;;;13.70;100.00;101564.72;5018211;28;20420;-75
2023/06/12 03:39:29;;;;;;;;;;;;;;;13.74;100.00;101562.53;5020265;28;20386;-74
2023/06/12 03:41:56;;;;;;;12.75;3.85;;;;;;;13.77;100.00;101561.41;5035627;28;19913;-75
2023/06/12 03:44:27;;;;;;;8.57;3.97;;;;;;;13.73;100.00;101555.50;5041093;28;20067;-74
2023/06/12 03:46:52;;;;;;;9.20;3.70;;;;;;;13.80;100.00;101564.59;5034657;28;20103;-74
2023/06/12 03:49:18;;;;;;;16.60;5.50;;;;;;;13.84;100.00;101557.91;5043294;28;20021;-74
2023/06/12 03:51:43;;;;;;;8.10;3.90;;;;;;;13.93;100.00;101546.16;5023699;28;20033;-75
2023/06/12 03:54:10;;;;;;;7.88;3.15;;;;;;;13.80;100.00;101548.47;5044312;28;20032;-74
2023/06/12 03:56:35;;;;;;;14.45;4.38;;;;;;;13.82;100.00;101549.16;5035226;28;20026;-74
2023/06/12 03:59:01;;;;;;;7.63;3.63;;;;;;;13.80;100.00;101545.78;5017345;28;20036;-75
2023/06/12 04:01:27;;;;;;;11.57;4.15;;;;;;;13.96;100.00;101554.91;5032267;28;20294;-74
2023/06/12 04:03:53;;;;;;;12.93;5.37;;;;;;;13.96;100.00;101536.13;5019810;28;20022;-75
2023/06/12 04:06:22;;;;;;;9.25;4.75;;;;;;;14.07;100.00;101549.19;5027915;28;20052;-74
2023/06/12 04:08:48;;;;;;;8.73;3.58;;;;;;;14.04;100.00;101531.56;5019153;28;20028;-75
2023/06/12 04:11:14;;;;;;;16.42;5.18;;;;;;;14.06;100.00;101537.63;5041986;28;20021;-75
2023/06/12 04:13:41;;;;;;;11.90;3.67;;;;;;;14.25;100.00;101544.50;5022196;28;20375;-74
2023/06/12 04:16:07;;;;;;;;;;;;;;;14.30;100.00;101534.09;5042207;28;20037;-75
2023/06/12 04:18:32;;;;;;;;;;;;;;;14.35;100.00;101520.16;5052062;28;19916;-74
2023/06/12 04:21:00;;;;;;;;;;;;;;;14.34;100.00;101522.03;5018943;28;19913;-74
2023/06/12 04:23:29;;;;;;;7.32;4.13;;;;;;;14.47;100.00;101524.22;5015473;28;19959;-75
2023/06/12 04:26:07;;;;;;;12.75;4.05;;;;;;;14.62;100.00;101516.31;5014407;28;20545;-74
2023/06/12 04:28:33;;;;;;;7.10;3.80;;;;;;;14.60;100.00;101498.69;5035646;28;20049;-74
2023/06/12 04:30:59;;;;;;;6.53;3.83;;;;;;;14.76;100.00;101498.66;5051695;28;20027;-74
2023/06/12 04:33:30;;;;;;;9.52;3.90;;;;;;;14.82;100.00;101486.38;5035315;28;20035;-74
2023/06/12 04:35:57;;;;;;;10.10;3.83;;;;;;;14.90;100.00;101475.59;5051541;28;20033;-74
2023/06/12 04:38:23;;;;;;;10.15;3.65;;;;;;;15.03;100.00;101475.03;5027755;28;20017;-74
2023/06/12 04:40:51;;;;;;;;;;;;;;;15.04;100.00;101457.91;5035744;28;20091;-74
2023/06/12 04:43:19;;;;;;;13.20;4.25;;;;;;;14.92;100.00;101441.31;5044467;28;20034;-75
2023/06/12 04:45:45;;;;;;;8.48;3.03;;;;;;;14.88;100.00;101448.88;5051316;28;20310;-74
2023/06/12 04:48:11;;;;;;;8.25;3.78;;;;;;;14.92;100.00;101452.91;5035532;28;20033;-74
2023/06/12 04:50:37;;;;;;;12.88;3.97;;;;;;;15.14;100.00;101464.75;5014492;28;20398;-74
2023/06/12 04:53:03;;;;;;;11.38;4.15;;;;;;;15.14;100.00;101443.22;5035651;28;20025;-75
2023/06/12 04:55:28;;;;;;;10.63;3.67;;;;;;;14.93;100.00;101435.75;5036011;28;20121;-74
2023/06/12 04:57:55;;;;;;;14.40;3.78;;;;;;;14.93;100.00;101461.81;5013992;28;20468;-74
2023/06/12 05:00:22;;;;;;;11.68;3.65;;;;;;;14.89;100.00;101461.34;5041243;28;20422;-74
2023/06/12 05:02:49;;;;;;;13.02;4.03;;;;;;;14.94;100.00;101485.00;5033489;28;20018;-75
2023/06/12 05:05:14;;;;;;;12.70;4.53;;;;;;;14.95;100.00;101478.59;5043371;28;20512;-74
2023/06/12 05:07:41;;;;;;;18.65;4.43;;;;;;;15.00;100.00;101492.38;5035300;28;20041;-75
2023/06/12 05:10:07;;;;;;;11.68;4.15;;;;;;;15.05;100.00;101492.69;5031401;28;20060;-74
2023/06/12 05:12:32;;;;;;;14.32;4.85;;;;;;;15.24;100.00;101510.28;5017498;28;20044;-74
2023/06/12 05:15:02;;;;;;;7.43;3.72;;;;;;;15.72;100.00;101507.53;5032232;28;20029;-75
2023/06/12 05:17:28;;;;;;;12.70;3.67;;;;;;;15.97;100.00;101449.81;5030869;28;20021;-75
2023/06/12 05:19:53;;;;;;;9.80;3.73;;;;;;;15.98;100.00;101416.44;5037804;28;20161;-75
2023/06/12 05:22:19;;;;;;;14.75;3.75;;;;;;;15.93;100.00;101400.00;5043385;28;20053;-75
2023/06/12 05:24:45;;;;;;;11.07;3.63;;;;;;;15.93;100.00;101396.47;5033545;28;20053;-75
2023/06/12 05:27:11;;;;;;;8.98;3.67;;;;;;;16.39;100.00;101417.94;5045038;28;20053;-75
2023/06/12 05:29:37;;;;;;;8.70;2.95;;;;;;;16.86;100.00;101401.41;5031978;28;20029;-75
2023/06/12 05:32:04;;;;;;;9.38;3.47;;;;;;;17.22;100.00;101316.09;5035222;28;20224;-75
2023/06/12 05:34:30;;;;;;;19.20;4.85;;;;;;;16.78;100.00;101163.34;5017453;28;20025;-75
2023/06/12 05:36:55;;;;;;;10.63;3.90;;;;;;;16.73;100.00;101215.16;5015009;28;20399;-75
2023/06/12 05:39:24;;;;;;;8.18;3.63;;;;;;;16.63;100.00;101220.03;5043035;28;20053;-75
2023/06/12 05:41:49;;;;;;;11.15;3.58;;;;;;;16.56;100.00;101246.09;5016049;28;20099;-75
2023/06/12 05:44:15;;;;;;;8.77;3.47;;;;;;;16.57;100.00;101250.44;5027702;28;20029;-75
2023/06/12 05:46:40;;;;;;;7.23;3.10;;;;;;;16.67;100.00;101273.38;5022153;28;20108;-75
2023/06/12 05:49:07;;;;;;;7.30;3.20;;;;;;;16.73;100.00;101270.94;5025487;28;20368;-75
2023/06/12 05:51:32;;;;;;;10.30;4.53;;;;;;;17.07;100.00;101308.91;5029664;28;20276;-75
2023/06/12 05:53:58;;;;;;;10.38;4.82;;;;;;;17.79;100.00;101288.13;5029639;28;20034;-75
2023/06/12 05:56:24;;;;;;;13.32;3.40;;;;;;;18.52;100.00;101137.19;5032701;28;20139;-75
2023/06/12 05:58:50;;;;;;;8.82;3.72;;;;;;;19.43;100.00;100964.31;5048037;28;20044;-74
2023/06/12 06:01:21;;;;;;;14.18;4.50;;;;;;;20.15;100.00;100786.88;5040720;28;20413;-75
2023/06/12 06:03:55;;;;;;;7.97;3.65;;;;;;;21.47;100.00;100696.63;5017668;28;20025;-75
2023/06/12 06:06:20;;;;;;;13.40;4.40;;;;;;;22.29;100.00;100556.19;5042438;28;20120;-75
2023/06/12 06:08:46;;;;;;;7.88;3.20;;;;;;;23.12;98.92;100458.44;5033036;28;20367;-75
2023/06/12 06:11:12;;;;;;;8.57;4.13;;;;;;;22.97;91.34;100181.38;5029462;28;20116;-75
2023/06/12 06:13:39;;;;;;;10.00;4.03;;;;;;;22.91;89.52;100239.56;5037182;28;20041;-75
2023/06/12 06:16:04;;;;;;;6.72;3.55;;;;;;;23.68;85.61;100249.25;5056419;28;20029;-75
2023/06/12 06:18:30;;;;;;;9.70;3.15;;;;;;;23.56;79.80;99903.44;5021215;28;20540;-75
2023/06/12 06:20:56;;;;;;;10.07;3.97;;;;;;;24.05;77.42;100015.88;5033414;28;20029;-75
2023/06/12 06:23:22;;;;;;;;;;;;;;;23.08;78.29;100048.91;5027945;28;20017;-75
2023/06/12 06:25:48;;;;;;;10.90;3.47;;;;;;;21.83;78.31;99933.88;5016955;28;19913;-75
2023/06/12 06:28:14;;;;;;;7.38;4.70;;;;;;;21.22;79.85;100029.00;5031621;28;20268;-75
2023/06/12 06:30:40;;;;;;;7.18;3.58;;;;;;;20.81;81.76;100184.91;5036372;28;20032;-76
2023/06/12 06:33:05;;;;;;;5.38;3.70;;;;;;;21.67;79.69;100236.31;5038185;28;20029;-75
2023/06/12 06:35:31;;;;;;;7.43;3.67;;;;;;;22.00;78.75;100306.09;5033300;28;20167;-75
2023/06/12 06:37:56;;;;;;;11.82;4.15;;;;;;;22.12;78.36;100342.19;5036841;28;20028;-75
2023/06/12 06:40:22;;;;;;;11.23;5.70;;;;;;;21.45;78.80;100234.34;5042975;28;20458;-75
2023/06/12 06:42:47;;;;;;;14.60;3.80;;;;;;;21.53;77.78;100218.72;5034681;28;20272;-75
2023/06/12 06:45:19;;;;;;;7.82;3.97;;;;;;;22.24;77.78;100420.97;5047508;28;20032;-75
2023/06/12 06:47:45;;;;;;;8.77;4.55;;;;;;;22.90;75.77;100401.22;5018454;28;20099;-75
2023/06/12 06:50:11;;;;;;;6.03;4.07;;;;;;;22.62;73.12;100130.16;5030889;28;20021;-75
2023/06/12 06:52:37;;;;;;;8.18;3.80;;;;;;;23.28;71.96;100233.41;5033910;28;20417;-76
2023/06/12 06:55:04;;;;;;;9.10;4.28;;;;;;;23.15;70.14;100085.69;5020946;28;20425;-75
2023/06/12 06:57:30;;;;;;;8.63;3.60;;;;;;;23.54;69.22;100107.19;5036296;28;20029;-75
2023/06/12 06:59:57;;;;;;;10.93;4.32;;;;;;;22.41;68.54;99821.84;5020221;28;20025;-75
2023/06/12 07:02:22;;;;;;;7.22;3.47;;;;;;;23.08;68.91;100150.44;5030083;28;20164;-75
2023/06/12 07:04:49;;;;;;;6.03;3.63;;;;;;;23.86;66.04;99966.44;5023122;28;20025;-75
2023/06/12 07:07:16;;;;;;;9.18;3.75;;;;;;;23.98;66.19;100087.81;5030868;28;20108;-75
2023/06/12 07:09:41;;;;;;;10.20;3.53;;;;;;;23.14;65.65;99885.31;5020124;28;20167;-75
2023/06/12 07:12:07;;;;;;;11.27;4.00;;;;;;;22.59;66.56;99862.16;5045179;28;20353;-75
2023/06/12 07:14:33;;;;;;;6.35;3.88;;;;;;;23.62;65.64;100065.00;5048979;28;20020;-75
2023/06/12 07:16:59;;;;;;;;;;;;;;;22.89;64.68;99787.22;5036145;28;20171;-75
2023/06/12 07:19:25;;;;;;;7.07;4.13;;;;;;;24.22;65.57;100327.34;5033371;28;19962;-75
2023/06/12 07:21:50;;;;;;;6.97;3.77;;;;;;;24.00;64.75;100175.59;5036179;28;20492;-75
2023/06/12 07:24:17;;;;;;;11.40;4.27;;;;;;;23.44;63.46;99899.31;5029152;28;20029;-75
2023/06/12 07:26:44;;;;;;;12.27;4.40;;;;;;;23.28;64.10;99966.53;5017702;28;20029;-75
2023/06/12 07:29:10;;;;;;;9.63;4.00;;;;;;;23.70;64.25;100134.53;5043689;28;20570;-75
2023/06/12 07:31:36;;;;;;;8.95;3.92;;;;;;;24.11;62.32;100007.41;5036610;28;20535;-75
2023/06/12 07:34:01;;;;;;;7.55;4.55;;;;;;;24.66;62.04;100187.88;5033886;28;20047;-75
2023/06/12 07:36:28;;;;;;;;;;;;;;;25.80;59.61;100145.75;5033535;28;20041;-75
2023/06/12 07:38:53;;;;;;;6.50;3.67;;;;;;;24.28;60.21;99838.06;5019048;28;19966;-75
2023/06/12 07:41:19;;;;;;;8.00;3.80;;;;;;;24.53;60.06;99943.63;5047521;28;20021;-75
2023/06/12 07:43:44;;;;;;;7.50;3.30;;;;;;;24.58;60.28;100062.84;5033436;28;20041;-75
2023/06/12 07:46:09;;;;;;;9.80;4.30;;;;;;;24.52;58.28;99761.09;5042722;28;20021;-75
2023/06/12 07:48:35;;;;;;;10.95;3.75;;;;;;;25.48;58.57;100086.84;5035878;28;20494;-75
2023/06/12 07:51:00;;;;;;;4.50;3.50;;;;;;;25.14;57.45;99805.28;5034559;28;20030;-75
2023/06/12 07:53:26;;;;;;;7.95;4.30;;;;;;;25.43;56.15;99757.06;5032453;28;20029;-76
2023/06/12 07:55:52;;;;;;;16.13;4.37;;;;;;;25.47;56.61;99897.47;5034631;28;20482;-75
2023/06/12 07:58:18;;;;;;;5.80;3.58;;;;;;;26.14;56.36;100074.00;5044749;28;20314;-75
2023/06/12 08:00:43;;;;;;;5.20;3.63;;;;;;;25.68;55.26;99766.13;5035457;28;20483;-75
2023/06/12 08:03:09;;;;;;;6.18;3.40;;;;;;;25.16;53.83;99491.78;5042212;28;20084;-75
2023/06/12 08:05:40;;;;;;;7.22;4.00;;;;;;;25.87;54.74;99879.19;5035284;28;20022;-75
2023/06/12 08:08:12;;;;;;;13.38;4.13;;;;;;;26.63;53.63;99939.84;5032918;28;20053;-75
2023/06/12 08:10:37;;;;;;;9.13;3.65;;;;;;;26.49;52.24;99622.19;5033196;28;20033;-76
2023/06/12 08:13:03;;;;;;;5.88;3.72;;;;;;;25.40;53.29;99486.34;5015829;28;20018;-75
2023/06/12 08:15:29;;;;;;;5.35;3.58;;;;;;;26.37;52.89;99827.03;5035665;28;20128;-75
2023/06/12 08:17:54;;;;;;;5.18;3.42;;;;;;;25.86;51.78;99488.50;5018304;28;20040;-75
2023/06/12 08:20:20;;;;;;;7.67;3.30;;;;;;;25.24;52.24;99333.59;5029599;28;20485;-75
2023/06/12 08:22:47;;;;;;;5.10;3.33;;;;;;;24.35;53.32;99297.72;5032821;28;20272;-75
2023/06/12 08:25:13;;;;;;;4.95;3.38;;;;;;;25.12;53.65;99638.97;5043700;28;20025;-75
2023/06/12 08:27:39;;;;;;;7.78;3.15;;;;;;;26.01;52.95;99818.34;5036135;28;20021;-75
2023/06/12 08:30:05;;;;;;;5.53;3.90;;;;;;;25.07;51.28;99243.13;5036036;28;20037;-76
2023/06/12 08:32:31;;;;;;;7.18;3.70;;;;;;;24.95;51.37;99254.47;5031100;28;20025;-75
2023/06/12 08:34:58;;;;;;;;;;;;;;;26.09;52.32;99815.81;5033059;28;20037;-75
2023/06/12 08:37:23;;;;;;;5.47;3.78;;;;;;;25.48;51.95;99543.06;5042116;28;20255;-75
2023/06/12 08:39:49;;;;;;;15.10;3.97;;;;;;;26.79;51.80;99931.47;5035300;28;20040;-75
2023/06/12 08:42:16;;;;;;;5.47;3.80;;;;;;;26.98;49.91;99693.25;5044426;28;20029;-75
2023/06/12 08:44:46;;;;;;;5.30;2.97;;;;;;;27.00;50.64;99817.84;5030606;28;20057;-75
2023/06/12 08:47:13;;;;;;;6.85;3.10;;;;;;;27.08;49.76;99699.38;5034157;28;20037;-75
2023/06/12 08:49:39;;;;;;;4.07;3.35;;;;;;;27.56;50.04;99865.59;5032852;28;20029;-74
2023/06/12 08:52:06;;;;;;;4.78;3.42;;;;;;;26.19;47.50;98955.25;5033359;28;20037;-74
2023/06/12 08:54:37;;;;;;;7.75;3.80;;;;;;;26.56;48.55;99336.44;5035661;28;20025;-74
2023/06/12 08:57:05;;;;;;;17.55;3.38;;;;;;;26.59;48.19;99372.19;5032448;28;20033;-74
2023/06/12 08:59:31;;;;;;;6.93;3.40;;;;;;;26.65;48.41;99431.22;5032947;28;20025;-74
2023/06/12 09:01:57;;;;;;;9.93;3.67;;;;;;;27.55;48.11;99710.44;5033564;28;20507;-74
2023/06/12 09:04:46;;;;;;;4.32;3.10;;;;;;;27.98;47.93;99722.03;5034604;28;20032;-74
2023/06/12 09:07:12;;;;;;;5.43;3.70;;;;;;;27.80;47.61;99561.09;5037085;28;20029;-74
2023/06/12 09:09:41;;;;;;;6.15;3.55;;;;;;;27.14;48.02;99396.06;5032681;28;20028;-75
2023/06/12 09:12:12;;;;;;;3.88;3.42;;;;;;;28.33;47.58;99776.50;5034984;28;20426;-75
2023/06/12 09:14:39;;;;;;;6.57;3.33;;;;;;;28.85;46.05;99680.19;5031418;28;20303;-75
2023/06/12 09:17:07;;;;;;;4.20;3.25;;;;;;;29.65;44.68;99736.22;5036484;28;20030;-75
2023/06/12 09:19:39;;;;;;;7.53;3.60;;;;;;;29.40;43.89;99460.84;5033289;28;20077;-75
2023/06/12 09:22:05;;;;;;;10.77;3.35;;;;;;;28.31;44.80;99210.69;5036112;28;20040;-74
2023/06/12 09:24:30;;;;;;;10.85;4.13;;;;;;;27.83;42.94;98789.16;5033465;28;20025;-75
2023/06/12 09:26:56;;;;;;;;;;;;;;;27.03;45.21;98912.66;5019847;28;20075;-75
2023/06/12 09:29:35;;;;;;;6.10;3.40;;;;;;;28.15;46.13;99565.03;5039407;28;19908;-75
2023/06/12 09:32:02;;;;;;;14.75;3.92;;;;;;;28.18;44.91;99309.25;5030279;28;20044;-74
2023/06/12 09:34:30;;;;;;;9.30;3.25;;;;;;;28.74;45.10;99617.22;5033820;28;20091;-75
2023/06/12 09:36:55;;;;;;;8.23;3.22;;;;;;;28.93;43.10;99273.69;5032871;28;20060;-76
2023/06/12 09:39:29;;;;;;;12.38;4.07;;;;;;;29.12;43.24;99412.75;5042977;28;20486;-75
2023/06/12 09:41:55;;;;;;;4.90;4.05;;;;;;;27.23;42.34;98462.91;5035191;28;20045;-76
2023/06/12 09:44:25;;;;;;;6.22;3.67;;;;;;;27.50;44.36;99044.53;5034474;28;20017;-75
2023/06/12 09:46:51;;;;;;;11.00;3.80;;;;;;;26.41;43.91;98639.84;5017317;28;20030;-74
2023/06/12 09:49:22;;;;;;;8.05;3.88;;;;;;;27.38;43.62;99036.91;5042635;28;20031;-75
2023/06/12 09:51:49;;;;;;;8.43;3.20;;;;;;;27.97;42.87;99151.81;5034419;28;20441;-75
2023/06/12 09:54:16;;;;;;;7.60;3.88;;;;;;;26.55;42.78;98494.72;5035154;28;20037;-75
2023/06/12 09:56:44;;;;;;;11.38;3.30;;;;;;;27.64;42.46;98935.59;5034997;28;20434;-75
2023/06/12 09:59:16;;;;;;;8.77;3.75;;;;;;;28.14;42.30;99121.72;5036549;28;20056;-76
2023/06/12 10:01:49;;;;;;;6.07;3.50;;;;;;;27.98;40.51;98696.25;5031374;28;20037;-75
2023/06/12 10:04:26;;;;;;;6.75;3.78;;;;;;;27.65;39.31;98327.91;5034075;28;20749;-75
2023/06/12 10:07:03;;;;;;;7.30;3.42;;;;;;;29.30;38.96;98996.66;5032870;28;20032;-76
2023/06/12 10:09:30;;;;;;;3.65;3.10;;;;;;;28.04;38.69;98336.81;5040831;28;20033;-76
2023/06/12 10:11:58;;;;;;;4.35;3.58;;;;;;;27.73;37.65;98149.69;5048006;28;20024;-75
2023/06/12 10:14:26;;;;;;;3.40;2.97;;;;;;;28.50;37.78;98552.53;5025742;28;20033;-75
2023/06/12 10:16:54;;;;;;;5.25;3.95;;;;;;;28.27;36.78;98239.28;5033887;28;20018;-75
2023/06/12 10:19:23;;;;;;;4.50;3.25;;;;;;;28.57;36.25;98173.25;5034586;28;20037;-74
2023/06/12 10:21:53;;;;;;;7.95;3.40;;;;;;;27.86;37.32;98130.53;5035575;28;20429;-75
2023/06/12 10:24:20;;;;;;;5.32;3.75;;;;;;;28.84;36.17;98369.41;5032527;28;20029;-75
2023/06/12 10:26:46;;;;;;;9.05;3.20;;;;;;;29.34;35.70;98502.16;5031220;28;20325;-75
2023/06/12 10:29:28;;;;;;;8.65;3.40;;;;;;;29.04;35.56;98363.00;5034316;28;20107;-75
2023/06/12 10:32:02;;;;;;;5.85;3.60;;;;;;;29.86;34.35;98436.31;5030052;28;20064;-74
2023/06/12 10:34:29;;;;;;;6.45;3.22;;;;;;;29.32;35.11;98361.56;5037769;28;20175;-75
2023/06/12 10:36:54;;;;;;;12.60;3.42;;;;;;;28.52;35.13;98017.84;5033105;28;20032;-75
2023/06/12 10:39:24;;;;;;;7.57;3.47;;;;;;;28.38;34.74;97973.53;5036005;28;20397;-75
2023/06/12 10:41:56;;;;;;;5.57;3.25;;;;;;;28.87;33.69;97926.66;5036436;28;20075;-75
2023/06/12 10:44:39;;;;;;;6.20;3.30;;;;;;;29.82;33.72;98335.59;5043884;28;20033;-74
2023/06/12 10:47:17;;;;;;;4.15;3.13;;;;;;;30.02;33.08;98309.84;5036007;28;20086;-75
2023/06/12 10:49:57;;;;;;;5.53;3.45;;;;;;;30.75;32.28;98414.44;5034778;28;20044;-74
2023/06/12 10:52:23;;;;;;;5.07;3.35;;;;;;;28.65;33.41;97737.88;5040433;28;20028;-73
2023/06/12 10:55:19;;;;;;;7.85;3.00;;;;;;;28.88;33.33;97807.44;5048546;28;20017;-74
2023/06/12 10:57:52;;;;;;;4.10;3.10;;;;;;;29.21;32.70;97836.50;5032072;28;20516;-75
2023/06/12 11:00:20;;;;;;;3.83;3.05;;;;;;;29.09;32.35;97803.66;5044037;28;20079;-74
2023/06/12 11:02:53;;;;;;;4.65;3.50;;;;;;;28.67;32.83;97667.75;5049832;28;20020;-75
2023/06/12 11:05:19;;;;;;;5.45;3.10;;;;;;;28.42;32.58;97647.91;5037948;28;20041;-74
2023/06/12 11:07:46;;;;;;;6.72;3.25;;;;;;;29.18;32.18;97897.66;5033873;28;20311;-74
2023/06/12 11:10:12;;;;;;;4.22;3.53;;;;;;;28.49;30.94;97331.78;5043405;28;20033;-73
2023/06/12 11:12:46;;;;;;;3.47;3.15;;;;;;;28.79;31.46;97651.16;5035632;28;20383;-74
2023/06/12 11:15:11;;;;;;;5.50;3.97;;;;;;;27.74;30.72;96915.28;5039071;28;20497;-74
2023/06/12 11:17:36;;;;;;;4.20;3.30;;;;;;;27.91;31.48;97262.13;5032513;28;20060;-74
2023/06/12 11:20:02;;;;;;;7.50;3.30;;;;;;;28.12;31.76;97459.19;5038911;28;20041;-73
2023/06/12 11:22:27;;;;;;;4.47;3.75;;;;;;;28.07;31.29;97417.50;5035130;28;20119;-73
2023/06/12 11:24:59;;;;;;;8.38;3.40;;;;;;;27.66;31.80;97340.25;5015656;28;20025;-74
2023/06/12 11:27:25;;;;;;;8.75;3.65;;;;;;;28.20;31.75;97518.50;5042295;28;20033;-77